Time;durP1;ratioP1;P1;durP2;ratioP2;P2;SDS_P1;SDS_P2;PMS_P1;PMS_P2;Temp;Humidity;BMP_temperature;BMP_pressure;BME280_temperature;BME280_humidity;BME280_pressure;Samples;Min_cycle;Max_cycle;Signal;HPM_P1;HPM_P2
2023/06/04 00:00:13;;;;;;;9.95;2.55;;;;;;;19.08;34.63;100636.75;4146473;28;20141;-71
2023/06/04 00:02:16;;;;;;;4.40;2.30;;;;;;;19.01;34.79;100640.38;4145874;28;20068;-72
2023/06/04 00:04:19;;;;;;;8.35;2.53;;;;;;;18.97;35.06;100638.72;4144572;28;20048;-72
2023/06/04 00:06:22;;;;;;;4.07;2.03;;;;;;;18.91;34.89;100638.81;4145965;28;20408;-71
2023/06/04 00:08:25;;;;;;;3.83;2.40;;;;;;;18.99;34.94;100642.19;4145378;28;20130;-71
2023/06/04 00:10:28;;;;;;;4.55;2.20;;;;;;;18.93;35.11;100640.53;4128359;28;20034;-72
2023/06/04 00:12:32;;;;;;;5.15;2.03;;;;;;;18.90;35.04;100626.56;4145106;28;20044;-72
2023/06/04 00:14:35;;;;;;;3.38;1.73;;;;;;;18.97;34.54;100633.47;4146123;28;20042;-71
2023/06/04 00:16:38;;;;;;;5.72;1.90;;;;;;;18.91;34.84;100637.06;4145032;28;20034;-72
2023/06/04 00:18:41;;;;;;;5.18;2.20;;;;;;;18.94;34.77;100638.75;4145659;28;20132;-72
2023/06/04 00:20:43;;;;;;;5.63;2.17;;;;;;;18.86;34.77;100641.53;4121679;28;20540;-72
2023/06/04 00:22:46;;;;;;;3.83;2.35;;;;;;;18.83;34.93;100637.16;4143903;28;20409;-72
2023/06/04 00:24:49;;;;;;;5.63;2.17;;;;;;;18.88;34.38;100633.59;4144939;28;20456;-72
2023/06/04 00:26:52;;;;;;;4.65;2.08;;;;;;;18.83;34.92;100636.28;4128177;28;20042;-72
2023/06/04 00:28:56;;;;;;;5.32;2.42;;;;;;;18.79;35.36;100640.75;4146336;28;20073;-72
2023/06/04 00:30:59;;;;;;;8.60;2.40;;;;;;;18.82;35.05;100635.44;4128428;28;20038;-72
2023/06/04 00:33:02;;;;;;;9.95;2.63;;;;;;;18.84;35.60;100640.66;4123071;28;20109;-72
2023/06/04 00:35:06;;;;;;;6.65;2.15;;;;;;;18.82;35.43;100637.19;4128339;28;20042;-73
2023/06/04 00:37:09;;;;;;;5.88;2.22;;;;;;;18.74;35.77;100642.59;4146071;28;20468;-72
2023/06/04 00:39:12;;;;;;;6.82;2.67;;;;;;;18.76;35.77;100639.91;4145656;28;20048;-72
2023/06/04 00:41:15;;;;;;;6.45;2.63;;;;;;;18.67;35.96;100636.56;4142454;28;20096;-72
2023/06/04 00:43:18;;;;;;;5.97;2.72;;;;;;;18.70;35.85;100645.28;4127465;28;20531;-73
2023/06/04 00:45:25;;;;;;;4.20;2.47;;;;;;;18.57;36.02;100642.00;4145817;28;20070;-72
2023/06/04 00:47:29;;;;;;;4.53;2.00;;;;;;;18.64;36.26;100651.53;4144887;28;20484;-73
2023/06/04 00:49:32;;;;;;;4.47;2.47;;;;;;;18.57;36.26;100655.16;4127712;28;20042;-73
2023/06/04 00:51:36;;;;;;;5.13;2.17;;;;;;;18.56;36.38;100656.03;4146026;28;20128;-73
2023/06/04 00:53:39;;;;;;;5.95;2.28;;;;;;;18.51;36.62;100660.53;4127228;28;20109;-73
2023/06/04 00:55:42;;;;;;;6.35;2.45;;;;;;;18.48;36.86;100658.78;4144486;28;20040;-73
2023/06/04 00:57:45;;;;;;;8.02;2.83;;;;;;;18.42;36.95;100657.13;4111526;28;20053;-72
2023/06/04 00:59:48;;;;;;;5.43;2.15;;;;;;;18.38;37.34;100655.41;4127742;28;20048;-72
2023/06/04 01:01:58;;;;;;;4.07;2.10;;;;;;;18.37;37.93;100658.09;4112419;28;20046;-73
2023/06/04 01:04:03;;;;;;;5.00;2.25;;;;;;;18.31;37.96;100656.41;4125526;28;20058;-73
2023/06/04 01:06:14;;;;;;;8.90;2.00;;;;;;;18.36;37.83;100654.59;4144310;28;20482;-72
2023/06/04 01:08:18;;;;;;;6.30;2.22;;;;;;;18.33;37.78;100657.28;4128253;28;20042;-73
2023/06/04 01:10:22;;;;;;;5.82;1.80;;;;;;;18.26;37.54;100659.09;4125332;28;20144;-72
2023/06/04 01:12:25;;;;;;;5.22;2.00;;;;;;;18.30;37.86;100667.84;4144829;28;20050;-73
2023/06/04 01:14:29;;;;;;;5.28;2.58;;;;;;;18.22;37.97;100669.72;4127788;28;20041;-73
2023/06/04 01:16:47;;;;;;;6.65;2.42;;;;;;;18.19;37.71;100664.50;4128220;28;20454;-72
2023/06/04 01:18:52;;;;;;;6.38;2.30;;;;;;;18.13;38.02;100663.66;4125605;28;20081;-73
2023/06/04 01:20:58;;;;;;;4.03;2.13;;;;;;;18.09;38.06;100669.88;4125235;28;20062;-72
2023/06/04 01:23:16;;;;;;;8.05;2.58;;;;;;;18.04;38.02;100668.22;4121700;28;20054;-72
2023/06/04 01:25:23;;;;;;;5.75;2.45;;;;;;;17.92;37.83;100662.22;4136922;28;20045;-72
2023/06/04 01:27:27;;;;;;;3.10;1.83;;;;;;;17.91;38.26;100664.84;4145247;28;20488;-73
2023/06/04 01:29:30;;;;;;;4.22;1.85;;;;;;;17.89;38.34;100664.00;4129226;28;20034;-73
2023/06/04 01:31:34;;;;;;;6.45;2.53;;;;;;;17.86;39.07;100667.53;4131333;28;20077;-72
2023/06/04 01:33:38;;;;;;;9.40;2.20;;;;;;;17.79;38.93;100671.97;4130123;28;20034;-72
2023/06/04 01:35:42;;;;;;;4.27;2.00;;;;;;;17.75;39.10;100670.25;4148118;28;20046;-73
2023/06/04 01:37:47;;;;;;;5.43;2.03;;;;;;;17.76;39.54;100669.38;4146082;28;20714;-72
2023/06/04 01:39:50;;;;;;;3.42;1.40;;;;;;;17.64;39.63;100669.53;4131335;28;20488;-73
2023/06/04 01:41:53;;;;;;;4.07;1.98;;;;;;;17.56;39.71;100674.88;4122723;28;20408;-72
2023/06/04 01:43:56;;;;;;;4.32;1.80;;;;;;;17.55;40.05;100669.63;4113640;28;20135;-72
2023/06/04 01:45:58;;;;;;;8.10;2.25;;;;;;;17.59;40.25;100668.72;4130917;28;20145;-72
2023/06/04 01:48:03;;;;;;;9.65;2.83;;;;;;;17.68;39.94;100670.38;4122109;28;20051;-72
2023/06/04 01:50:09;;;;;;;4.68;1.80;;;;;;;17.54;40.45;100665.28;4131414;28;20058;-72
2023/06/04 01:52:13;;;;;;;5.88;2.28;;;;;;;17.54;40.11;100670.53;4147402;28;20033;-72
2023/06/04 01:54:16;;;;;;;6.13;2.10;;;;;;;17.54;40.08;100670.53;4130897;28;20046;-72
2023/06/04 01:56:20;;;;;;;4.38;2.05;;;;;;;17.55;39.77;100672.25;4131131;28;20038;-72
2023/06/04 01:58:26;;;;;;;;;;;;;;;17.37;40.07;100663.69;4131462;28;20038;-72
2023/06/04 02:00:30;;;;;;;4.88;2.17;;;;;;;17.34;40.28;100666.34;4144563;23;19928;-68
2023/06/04 02:02:33;;;;;;;4.90;2.00;;;;;;;17.19;40.89;100663.91;4130145;28;20563;-68
2023/06/04 02:04:36;;;;;;;3.97;2.45;;;;;;;17.12;40.67;100663.06;4147679;28;20042;-67
2023/06/04 02:06:39;;;;;;;7.50;2.90;;;;;;;17.18;40.91;100667.41;4130893;28;20038;-68
2023/06/04 02:08:43;;;;;;;8.35;2.17;;;;;;;17.20;40.75;100670.88;4146040;28;20103;-67
2023/06/04 02:10:47;;;;;;;8.73;2.33;;;;;;;17.17;40.25;100673.53;4135874;28;20038;-67
2023/06/04 02:12:55;;;;;;;5.00;2.30;;;;;;;17.06;40.62;100673.66;4130267;28;20046;-67
2023/06/04 02:14:58;;;;;;;5.43;1.95;;;;;;;16.98;40.42;100671.09;4128983;28;20053;-67
2023/06/04 02:17:01;;;;;;;5.07;2.35;;;;;;;16.99;40.67;100678.06;4129034;28;21078;-68
2023/06/04 02:19:04;;;;;;;4.20;2.10;;;;;;;16.92;40.60;100676.38;4132218;28;20166;-67
2023/06/04 02:21:07;;;;;;;4.50;2.05;;;;;;;16.86;41.12;100679.03;4114010;28;20122;-67
2023/06/04 02:23:10;;;;;;;4.60;1.88;;;;;;;16.89;41.17;100681.66;4129624;28;20126;-67
2023/06/04 02:25:15;;;;;;;6.30;2.20;;;;;;;16.85;40.87;100679.91;4130333;28;20053;-67
2023/06/04 02:27:18;;;;;;;9.32;2.03;;;;;;;16.93;40.79;100672.88;4114318;28;20054;-67
2023/06/04 02:29:21;;;;;;;4.38;2.05;;;;;;;16.80;40.64;100681.72;4131342;28;20568;-67
2023/06/04 02:31:24;;;;;;;4.03;1.52;;;;;;;16.73;40.81;100687.03;4130312;28;20427;-68
2023/06/04 02:33:27;;;;;;;5.68;1.90;;;;;;;16.73;40.98;100687.03;4129672;28;20572;-67
2023/06/04 02:35:31;;;;;;;6.25;1.90;;;;;;;16.73;41.22;100680.88;4129882;28;20133;-67
2023/06/04 02:37:33;;;;;;;4.55;1.92;;;;;;;16.69;41.36;100685.28;4131573;28;20121;-68
2023/06/04 02:39:36;;;;;;;4.57;2.15;;;;;;;16.69;41.49;100682.66;4131673;28;20038;-68
2023/06/04 02:41:40;;;;;;;5.80;2.10;;;;;;;16.69;41.00;100682.66;4129489;28;20038;-67
2023/06/04 02:43:44;;;;;;;;;;;;;;;16.53;41.85;100683.66;4128140;28;20483;-68
2023/06/04 02:45:46;;;;;;;2.55;1.50;;;;;;;16.52;41.30;100687.16;4130187;28;19922;-68
2023/06/04 02:47:49;;;;;;;5.50;1.92;;;;;;;16.52;41.74;100687.16;4117466;28;20046;-67
2023/06/04 02:49:52;;;;;;;3.95;1.90;;;;;;;16.49;41.58;100677.56;4122335;28;20038;-68
2023/06/04 02:51:55;;;;;;;3.63;1.92;;;;;;;16.52;41.54;100684.53;4106733;28;20042;-68
2023/06/04 02:53:58;;;;;;;3.92;1.75;;;;;;;16.54;41.67;100680.13;4130296;28;20035;-68
2023/06/04 02:56:01;;;;;;;7.38;2.15;;;;;;;16.49;41.34;100682.78;4128206;28;20069;-67
2023/06/04 02:58:05;;;;;;;3.33;1.67;;;;;;;16.51;41.67;100685.41;4112815;28;20113;-68
2023/06/04 03:00:12;;;;;;;6.53;1.92;;;;;;;16.53;41.42;100678.41;4112702;28;20042;-68
2023/06/04 03:02:15;;;;;;;6.72;2.47;;;;;;;16.47;41.66;100683.69;4128699;28;20460;-68
2023/06/04 03:04:18;;;;;;;9.48;2.35;;;;;;;16.48;41.23;100685.44;4127085;28;20034;-68
2023/06/04 03:06:23;;;;;;;3.55;1.90;;;;;;;16.41;41.76;100695.09;4130790;28;20034;-68
2023/06/04 03:08:25;;;;;;;3.45;1.77;;;;;;;16.43;41.34;100689.81;4112881;28;20081;-68
2023/06/04 03:10:29;;;;;;;5.05;1.90;;;;;;;16.44;41.69;100695.09;4130976;28;20041;-69
2023/06/04 03:12:31;;;;;;;3.65;2.10;;;;;;;16.43;41.89;100689.81;4129496;28;20542;-68
2023/06/04 03:14:36;;;;;;;4.50;2.05;;;;;;;16.43;41.30;100685.47;4128145;28;20539;-68
2023/06/04 03:16:39;;;;;;;4.63;1.70;;;;;;;16.40;41.43;100688.97;4130378;28;20559;-67
2023/06/04 03:18:44;;;;;;;3.85;2.10;;;;;;;16.35;41.39;100685.53;4126206;28;20073;-68
2023/06/04 03:20:47;;;;;;;4.88;1.98;;;;;;;16.28;41.52;100690.78;4129200;28;20038;-68
2023/06/04 03:22:50;;;;;;;5.53;2.00;;;;;;;16.27;41.52;100692.56;4119565;28;20045;-68
2023/06/04 03:24:53;;;;;;;6.70;2.55;;;;;;;16.26;41.58;100688.19;4129341;28;20038;-69
2023/06/04 03:26:56;;;;;;;5.13;2.88;;;;;;;16.28;41.69;100688.16;4113435;28;20035;-67
2023/06/04 03:28:59;;;;;;;6.63;2.22;;;;;;;16.27;41.80;100692.56;4128606;28;20039;-68
2023/06/04 03:31:03;;;;;;;4.57;2.20;;;;;;;16.27;41.53;100691.69;4127757;28;20070;-67
2023/06/04 03:33:06;;;;;;;7.53;1.77;;;;;;;16.21;41.56;100692.59;4127315;28;20494;-68
2023/06/04 03:35:09;;;;;;;6.20;2.20;;;;;;;16.09;42.24;100690.03;4129093;28;20057;-68
2023/06/04 03:37:12;;;;;;;7.53;2.47;;;;;;;16.11;41.94;100693.53;4130631;28;20511;-68
2023/06/04 03:39:15;;;;;;;7.32;2.65;;;;;;;16.13;42.01;100690.00;4112764;28;20409;-68
2023/06/04 03:41:20;;;;;;;3.35;1.88;;;;;;;16.08;42.16;100693.50;4127663;28;20034;-67
2023/06/04 03:43:23;;;;;;;6.53;2.37;;;;;;;16.10;41.83;100694.41;4128577;28;20428;-68
2023/06/04 03:45:30;;;;;;;5.07;2.70;;;;;;;16.04;42.00;100696.16;4113167;28;20050;-69
2023/06/04 03:47:34;;;;;;;8.65;2.03;;;;;;;16.03;41.93;100693.53;4128144;28;20065;-68
2023/06/04 03:49:38;;;;;;;5.13;1.80;;;;;;;16.07;42.29;100694.41;4128435;28;20046;-67
2023/06/04 03:51:42;;;;;;;5.90;2.13;;;;;;;16.07;41.88;100694.41;4112233;28;20079;-68
2023/06/04 03:53:45;;;;;;;4.45;1.88;;;;;;;16.01;41.97;100693.56;4108426;28;20396;-68
2023/06/04 03:55:48;;;;;;;7.78;1.92;;;;;;;16.07;42.00;100700.53;4128296;28;20056;-68
2023/06/04 03:57:51;;;;;;;6.50;2.33;;;;;;;16.14;41.91;100701.38;4112319;28;20591;-69
2023/06/04 03:59:55;;;;;;;4.18;2.00;;;;;;;16.20;41.39;100698.72;4128571;28;20042;-68
2023/06/04 04:01:58;;;;;;;3.65;1.83;;;;;;;16.14;42.06;100697.00;4108735;28;20595;-68
2023/06/04 04:04:05;;;;;;;5.53;2.05;;;;;;;16.18;42.00;100705.75;4129158;28;20121;-68
2023/06/04 04:06:08;;;;;;;7.57;2.28;;;;;;;16.16;42.02;100699.59;4112428;28;20046;-68
2023/06/04 04:08:10;;;;;;;3.72;1.90;;;;;;;16.10;41.92;100699.63;4112615;28;20054;-68
2023/06/04 04:10:13;;;;;;;2.95;1.70;;;;;;;16.20;41.83;100702.19;4112920;28;20540;-67
2023/06/04 04:12:17;;;;;;;3.60;2.05;;;;;;;16.21;42.05;100697.84;4127559;28;20038;-67
2023/06/04 04:14:19;;;;;;;5.65;2.08;;;;;;;16.23;42.04;100698.69;4127304;28;20427;-68
2023/06/04 04:16:23;;;;;;;4.13;2.10;;;;;;;16.28;41.70;100699.56;4128364;28;20121;-68
2023/06/04 04:18:27;;;;;;;4.22;1.85;;;;;;;16.25;41.63;100704.78;4128717;28;20038;-68
2023/06/04 04:20:31;;;;;;;6.80;2.40;;;;;;;16.25;41.08;100699.53;4126512;28;20488;-68
2023/06/04 04:22:41;;;;;;;4.82;2.22;;;;;;;16.23;41.46;100704.81;4111325;28;20043;-69
2023/06/04 04:24:45;;;;;;;3.17;1.90;;;;;;;16.25;41.30;100710.03;4127608;28;20457;-68
2023/06/04 04:26:48;;;;;;;4.47;1.95;;;;;;;16.21;41.46;100716.22;4128505;28;20543;-68
2023/06/04 04:28:52;;;;;;;6.20;2.20;;;;;;;16.20;41.14;100711.84;4128565;28;20089;-68
2023/06/04 04:30:57;;;;;;;4.78;2.50;;;;;;;16.12;41.88;100709.25;4133211;28;20107;-68
2023/06/04 04:33:00;;;;;;;5.60;1.92;;;;;;;16.18;41.63;100718.84;4127419;28;20037;-68
2023/06/04 04:35:11;;;;;;;4.95;1.80;;;;;;;16.16;41.34;100715.34;4111339;28;20039;-69
2023/06/04 04:37:17;;;;;;;5.68;2.38;;;;;;;16.15;41.92;100713.59;4127430;28;20049;-68
2023/06/04 04:39:20;;;;;;;12.75;1.88;;;;;;;16.18;41.71;100709.22;4125263;28;20042;-69
2023/06/04 04:41:23;;;;;;;6.60;2.42;;;;;;;16.28;41.39;100722.28;4126957;28;20077;-68
2023/06/04 04:43:31;;;;;;;6.35;2.28;;;;;;;16.27;41.70;100721.41;4126620;28;20512;-68
2023/06/04 04:45:39;;;;;;;4.05;2.00;;;;;;;16.30;41.71;100724.03;4128491;28;20064;-68
2023/06/04 04:47:44;;;;;;;4.25;1.83;;;;;;;16.29;41.73;100730.13;4128536;28;20137;-68
2023/06/04 04:49:49;;;;;;;5.25;2.45;;;;;;;16.28;41.22;100736.28;4111425;28;20097;-68
2023/06/04 04:51:52;;;;;;;5.68;2.10;;;;;;;16.29;41.69;100732.75;4127358;28;20052;-67
2023/06/04 04:54:00;;;;;;;4.78;1.60;;;;;;;16.31;41.89;100725.78;4126970;28;20058;-68
2023/06/04 04:56:03;;;;;;;4.25;1.95;;;;;;;16.39;41.43;100729.22;4122316;28;20456;-68
2023/06/04 04:58:12;;;;;;;6.18;1.80;;;;;;;16.57;41.31;100732.59;4124496;28;20129;-69
2023/06/04 05:00:17;;;;;;;8.13;2.00;;;;;;;16.53;40.88;100741.41;4111822;28;21147;-68
2023/06/04 05:02:22;;;;;;;5.70;2.05;;;;;;;16.57;40.59;100740.47;4127082;28;20050;-67
2023/06/04 05:04:26;;;;;;;3.75;2.08;;;;;;;16.52;41.34;100734.41;4127234;28;20038;-67
2023/06/04 05:06:29;;;;;;;4.53;1.98;;;;;;;16.48;40.92;100737.91;4126318;28;20155;-68
2023/06/04 05:08:32;;;;;;;5.22;1.65;;;;;;;16.46;41.33;100744.94;4129200;28;20126;-68
2023/06/04 05:10:37;;;;;;;6.90;2.00;;;;;;;16.53;41.38;100741.41;4127376;28;20038;-68
2023/06/04 05:12:51;;;;;;;3.00;1.60;;;;;;;16.58;41.17;100734.34;4110697;28;20045;-68
2023/06/04 05:14:55;;;;;;;3.05;1.75;;;;;;;16.63;41.66;100736.94;4127929;28;20031;-68
2023/06/04 05:16:58;;;;;;;8.52;2.33;;;;;;;16.67;41.33;100734.28;4111143;28;20106;-67
2023/06/04 05:19:01;;;;;;;8.07;2.17;;;;;;;16.81;40.42;100736.84;4109918;28;20075;-69
2023/06/04 05:21:08;;;;;;;2.95;1.60;;;;;;;16.88;40.83;100743.81;4126091;28;20101;-69
2023/06/04 05:23:16;;;;;;;8.43;2.55;;;;;;;16.98;39.82;100742.00;4126591;28;20129;-68
2023/06/04 05:25:23;;;;;;;3.25;1.75;;;;;;;17.01;39.91;100739.34;4125596;28;20050;-69
2023/06/04 05:27:28;;;;;;;4.70;2.00;;;;;;;17.08;39.92;100737.53;4110274;28;20043;-69
2023/06/04 05:29:31;;;;;;;7.53;1.88;;;;;;;17.20;38.78;100736.56;4126732;28;20039;-69
2023/06/04 05:31:34;;;;;;;4.35;2.30;;;;;;;17.22;39.63;100743.53;4127167;28;20552;-68
2023/06/04 05:33:39;;;;;;;3.95;2.08;;;;;;;17.39;42.02;100737.25;4125127;28;20077;-67
2023/06/04 05:35:48;;;;;;;3.97;1.70;;;;;;;17.52;41.39;100741.53;4110620;28;20081;-67
2023/06/04 05:37:53;;;;;;;5.20;2.30;;;;;;;17.73;43.58;100744.81;4126741;28;20089;-68
2023/06/04 05:40:05;;;;;;;3.15;1.52;;;;;;;17.80;39.06;100750.00;4127132;28;20070;-64
2023/06/04 05:42:10;;;;;;;6.70;2.08;;;;;;;17.87;39.47;100752.53;4125491;28;20088;-64
2023/06/04 05:44:15;;;;;;;5.90;2.15;;;;;;;17.97;37.47;100748.94;4126691;28;20300;-64
2023/06/04 05:46:18;;;;;;;;;;;;;;;17.95;39.13;100762.13;4110412;28;20035;-65
2023/06/04 05:48:21;;;;;;;7.10;1.92;;;;;;;18.11;37.77;100757.56;4110927;28;19922;-64
2023/06/04 05:50:24;;;;;;;5.93;2.28;;;;;;;18.26;38.05;100766.16;4110394;28;20604;-66
2023/06/04 05:52:27;;;;;;;4.10;2.00;;;;;;;18.18;37.55;100763.63;4126576;28;20046;-62
2023/06/04 05:54:30;;;;;;;4.72;1.98;;;;;;;18.33;36.76;100756.44;4109570;28;20078;-65
2023/06/04 05:56:33;;;;;;;6.68;1.80;;;;;;;18.32;36.39;100760.81;4115581;28;20042;-65
2023/06/04 05:58:36;;;;;;;3.78;1.80;;;;;;;18.29;36.35;100766.09;4126766;28;20524;-64
2023/06/04 06:00:42;;;;;;;;;;;;;;;18.27;36.57;100762.63;4126878;28;20038;-64
2023/06/04 06:02:48;;;;;;;3.83;1.85;;;;;;;18.28;36.15;100764.34;4127966;28;19925;-64
2023/06/04 06:05:05;;;;;;;6.53;1.98;;;;;;;18.28;36.64;100765.25;4126933;28;20129;-64
2023/06/04 06:07:08;;;;;;;3.25;1.48;;;;;;;18.30;35.59;100762.59;4127923;28;20030;-63
2023/06/04 06:09:11;;;;;;;3.00;1.48;;;;;;;18.29;35.55;100766.09;4110868;28;20109;-70
2023/06/04 06:11:16;;;;;;;7.47;1.88;;;;;;;18.35;35.81;100766.03;4126832;28;20039;-70
2023/06/04 06:13:19;;;;;;;5.28;1.75;;;;;;;18.34;36.12;100766.94;4126817;28;20031;-68
2023/06/04 06:15:23;;;;;;;4.82;1.80;;;;;;;18.58;35.19;100772.75;4130213;28;20088;-69
2023/06/04 06:17:29;;;;;;;3.17;1.88;;;;;;;18.61;35.57;100767.44;4129467;28;20591;-67
2023/06/04 06:19:32;;;;;;;3.88;1.75;;;;;;;18.47;35.54;100773.78;4129393;28;20072;-68
2023/06/04 06:21:36;;;;;;;3.85;1.70;;;;;;;18.49;35.70;100771.13;4129783;28;20070;-67
2023/06/04 06:23:39;;;;;;;4.87;1.90;;;;;;;18.53;34.95;100772.81;4113304;28;20049;-69
2023/06/04 06:25:45;;;;;;;3.75;1.60;;;;;;;18.58;35.00;100773.63;4126815;28;20392;-68
2023/06/04 06:27:56;;;;;;;5.32;2.05;;;;;;;18.70;35.85;100776.97;4129993;28;20070;-69
2023/06/04 06:30:00;;;;;;;4.07;1.70;;;;;;;18.86;35.10;100778.50;4113451;28;20070;-69
2023/06/04 06:32:03;;;;;;;3.28;1.77;;;;;;;18.92;34.81;100781.06;4112030;28;20129;-68
2023/06/04 06:34:07;;;;;;;6.43;1.83;;;;;;;18.94;34.93;100787.19;4129070;28;20397;-68
2023/06/04 06:36:11;;;;;;;3.92;1.90;;;;;;;18.86;36.07;100778.50;4127090;28;20138;-67
2023/06/04 06:38:14;;;;;;;2.83;1.40;;;;;;;19.03;35.18;100794.06;4130661;28;20050;-68
2023/06/04 06:40:20;;;;;;;4.82;1.95;;;;;;;19.06;35.30;100796.66;4131013;28;20049;-68
2023/06/04 06:42:23;;;;;;;3.83;1.70;;;;;;;19.24;34.95;100790.22;4128498;28;20056;-67
2023/06/04 06:44:27;;;;;;;3.40;1.60;;;;;;;19.27;34.88;100791.94;4129976;28;20467;-68
2023/06/04 06:46:30;;;;;;;2.95;1.60;;;;;;;19.31;33.90;100786.59;4131205;28;20070;-68
2023/06/04 06:48:33;;;;;;;5.18;2.05;;;;;;;19.32;34.90;100792.75;4128728;28;20069;-68
2023/06/04 06:50:37;;;;;;;2.95;1.73;;;;;;;19.43;34.67;100792.56;4119948;28;20042;-67
2023/06/04 06:52:40;;;;;;;2.92;1.50;;;;;;;19.61;34.10;100786.97;4126585;28;20050;-68
2023/06/04 06:54:43;;;;;;;6.18;2.08;;;;;;;19.56;34.40;100795.84;4131261;28;20049;-68
2023/06/04 06:56:48;;;;;;;7.22;2.30;;;;;;;19.63;34.82;100789.56;4132837;28;20111;-68
2023/06/04 06:58:51;;;;;;;3.10;1.58;;;;;;;19.71;34.82;100790.28;4140027;28;20042;-69
2023/06/04 07:00:56;;;;;;;4.75;1.92;;;;;;;19.80;34.39;100794.56;4132949;28;20516;-69
2023/06/04 07:02:59;;;;;;;3.33;1.52;;;;;;;19.85;34.17;100788.28;4132550;28;20057;-67
2023/06/04 07:05:02;;;;;;;8.25;1.52;;;;;;;19.89;34.37;100786.50;4133092;28;20475;-69
2023/06/04 07:07:07;;;;;;;5.57;2.13;;;;;;;20.13;33.24;100789.53;4132526;28;20038;-74
2023/06/04 07:09:10;;;;;;;7.60;1.98;;;;;;;20.07;33.69;100789.66;4126583;28;20137;-70
2023/06/04 07:11:13;;;;;;;2.55;1.40;;;;;;;20.10;34.41;100790.47;4132178;28;20102;-68
2023/06/04 07:13:16;;;;;;;6.43;1.52;;;;;;;20.30;34.48;100786.56;4114406;28;20046;-68
2023/06/04 07:15:19;;;;;;;5.28;1.67;;;;;;;20.45;33.60;100790.63;4124059;28;20512;-68
2023/06/04 07:17:22;;;;;;;2.88;1.65;;;;;;;20.45;32.37;100794.13;4128001;28;20069;-68
2023/06/04 07:19:25;;;;;;;5.28;2.00;;;;;;;20.43;33.29;100797.72;4127145;28;20042;-67
2023/06/04 07:21:28;;;;;;;5.40;1.85;;;;;;;20.49;33.19;100790.53;4130891;28;20125;-68
2023/06/04 07:23:32;;;;;;;3.15;1.60;;;;;;;20.46;33.69;100787.06;4132091;28;20404;-68
2023/06/04 07:25:35;;;;;;;5.38;1.88;;;;;;;20.51;33.94;100793.16;4131062;28;20126;-69
2023/06/04 07:27:38;;;;;;;4.10;1.70;;;;;;;20.66;32.20;100794.56;4131917;28;20427;-68
2023/06/04 07:29:44;;;;;;;5.05;1.60;;;;;;;20.66;32.75;100787.56;4130919;28;20146;-68
2023/06/04 07:31:47;;;;;;;3.72;1.77;;;;;;;20.69;32.92;100786.59;4130642;28;20042;-68
2023/06/04 07:33:49;;;;;;;3.53;1.75;;;;;;;20.83;33.13;100788.94;4130808;28;20050;-67
2023/06/04 07:35:53;;;;;;;7.63;1.80;;;;;;;21.15;31.94;100785.53;4122453;28;20041;-69
2023/06/04 07:37:58;;;;;;;4.68;1.65;;;;;;;21.02;32.13;100779.66;4131529;28;20077;-69
2023/06/04 07:40:03;;;;;;;3.75;1.85;;;;;;;21.16;31.88;100783.75;4131348;28;20492;-69
2023/06/04 07:42:07;;;;;;;4.90;1.60;;;;;;;21.23;31.76;100788.88;4131269;28;20042;-66
2023/06/04 07:44:09;;;;;;;2.75;1.70;;;;;;;21.18;32.38;100784.59;4131381;28;20125;-68
2023/06/04 07:46:12;;;;;;;5.03;2.25;;;;;;;21.38;31.55;100782.31;4116455;28;20316;-68
2023/06/04 07:48:15;;;;;;;3.25;1.77;;;;;;;21.34;32.11;100785.94;4131991;28;20058;-67
2023/06/04 07:50:18;;;;;;;3.25;1.65;;;;;;;21.40;32.74;100790.22;4132364;28;20050;-67
2023/06/04 07:52:21;;;;;;;4.70;1.80;;;;;;;21.72;31.33;100784.09;4114078;28;20106;-66
2023/06/04 07:54:24;;;;;;;2.35;1.52;;;;;;;21.76;30.42;100790.19;4125825;28;20043;-65
2023/06/04 07:56:29;;;;;;;3.53;1.77;;;;;;;21.75;31.32;100778.72;4116132;28;20501;-67
2023/06/04 07:58:32;;;;;;;2.63;1.80;;;;;;;21.80;29.93;100783.91;4115199;28;20046;-68
2023/06/04 08:00:34;;;;;;;5.53;2.15;;;;;;;21.79;30.81;100784.81;4139622;23;20041;-66
2023/06/04 08:02:37;;;;;;;2.85;1.83;;;;;;;21.68;31.05;100778.94;4145854;28;20057;-66
2023/06/04 08:04:40;;;;;;;4.18;1.45;;;;;;;21.49;31.75;100783.81;4142858;28;20111;-66
2023/06/04 08:06:44;;;;;;;1.95;1.30;;;;;;;21.51;31.94;100777.63;4147886;28;20038;-65
2023/06/04 08:08:49;;;;;;;4.72;2.72;;;;;;;21.65;32.22;100784.31;4148447;28;20503;-66
2023/06/04 08:10:52;;;;;;;4.70;1.98;;;;;;;21.76;31.11;100776.97;4148427;28;20041;-67
2023/06/04 08:12:59;;;;;;;1.85;1.40;;;;;;;21.65;31.64;100771.09;4113556;28;20066;-64
2023/06/04 08:15:02;;;;;;;2.50;1.70;;;;;;;21.58;32.02;100775.66;4110446;28;20089;-65
2023/06/04 08:17:05;;;;;;;5.73;1.77;;;;;;;21.58;31.97;100776.56;4142888;28;20045;-65
2023/06/04 08:19:10;;;;;;;6.93;1.70;;;;;;;21.44;31.92;100776.00;4126670;28;20046;-64
2023/06/04 08:21:16;;;;;;;2.72;1.27;;;;;;;21.27;32.87;100776.44;4145147;28;20064;-66
2023/06/04 08:23:19;;;;;;;14.77;2.22;;;;;;;;;;4141665;28;20042;-65
2023/06/04 08:25:22;;;;;;;6.05;1.90;;;;;;;21.44;32.05;100786.59;4126388;28;20552;-67
2023/06/04 08:27:25;;;;;;;3.38;1.75;;;;;;;21.59;32.08;100780.06;4151503;28;20426;-68
2023/06/04 08:29:30;;;;;;;4.82;1.77;;;;;;;21.89;32.43;100778.34;4115551;28;20051;-67
2023/06/04 08:31:32;;;;;;;;;;;;;;;21.81;32.77;100779.47;4130394;28;20039;-67
2023/06/04 08:33:35;;;;;;;2.58;1.70;;;;;;;21.89;33.30;100783.66;4137005;28;19929;-64
2023/06/04 08:35:38;;;;;;;2.60;1.80;;;;;;;21.96;33.42;100784.34;4114019;28;20677;-67
2023/06/04 08:37:41;;;;;;;8.15;2.72;;;;;;;22.14;32.58;100775.88;4144781;28;20041;-66
2023/06/04 08:39:44;;;;;;;2.75;1.60;;;;;;;22.20;32.87;100782.78;4144594;28;20164;-68
2023/06/04 08:41:52;;;;;;;3.83;1.63;;;;;;;22.30;33.20;100786.03;4127289;28;20077;-66
2023/06/04 08:43:56;;;;;;;6.55;1.73;;;;;;;22.47;32.40;100788.19;4126678;28;20042;-68
2023/06/04 08:46:08;;;;;;;4.80;1.85;;;;;;;22.62;32.34;100787.75;4143045;28;20443;-67
2023/06/04 08:48:12;;;;;;;4.47;1.55;;;;;;;22.77;32.05;100790.84;4145116;28;20112;-66
2023/06/04 08:50:18;;;;;;;4.70;1.83;;;;;;;22.68;31.92;100789.34;4139948;28;20084;-67
2023/06/04 08:52:21;;;;;;;4.78;2.63;;;;;;;22.80;32.03;100788.09;4126543;28;20048;-67
2023/06/04 08:54:25;;;;;;;6.03;1.73;;;;;;;23.00;31.10;100784.81;4126703;28;20532;-64
2023/06/04 08:56:32;;;;;;;3.15;1.60;;;;;;;22.86;31.60;100787.03;4125469;28;20042;-64
2023/06/04 08:58:37;;;;;;;7.53;1.98;;;;;;;22.88;32.33;100791.38;4127934;28;20080;-66
2023/06/04 09:00:40;;;;;;;2.97;1.80;;;;;;;23.04;31.49;100788.22;4127475;28;20049;-66
2023/06/04 09:02:46;;;;;;;4.15;2.13;;;;;;;23.23;31.08;100792.06;4125975;28;20057;-67
2023/06/04 09:04:50;;;;;;;3.58;1.90;;;;;;;23.32;31.19;100786.44;4142981;28;20042;-67
2023/06/04 09:06:55;;;;;;;7.50;2.13;;;;;;;23.37;31.20;100782.75;4144630;28;20065;-65
2023/06/04 09:08:59;;;;;;;3.33;1.63;;;;;;;23.32;31.01;100791.72;4144545;28;20062;-66
2023/06/04 09:11:07;;;;;;;6.53;2.13;;;;;;;23.27;31.18;100788.34;4126019;28;20073;-64
2023/06/04 09:13:11;;;;;;;3.45;1.80;;;;;;;23.39;31.28;100786.22;4144266;28;20140;-68
2023/06/04 09:15:14;;;;;;;4.63;1.98;;;;;;;23.69;30.28;100785.16;4144632;28;20155;-65
2023/06/04 09:17:22;;;;;;;4.82;2.30;;;;;;;23.60;30.29;100782.81;4143678;28;20038;-65
2023/06/04 09:19:26;;;;;;;2.63;1.67;;;;;;;23.40;30.31;100785.31;4123967;28;20401;-65
2023/06/04 09:21:29;;;;;;;7.55;2.65;;;;;;;23.52;29.96;100787.53;4126264;28;20054;-69
2023/06/04 09:23:32;;;;;;;7.75;1.73;;;;;;;23.51;30.72;100789.31;4143823;28;20045;-69
2023/06/04 09:25:42;;;;;;;4.45;1.60;;;;;;;23.53;30.84;100787.47;4141111;28;20033;-69
2023/06/04 09:27:45;;;;;;;3.33;1.67;;;;;;;23.77;30.76;100782.25;4133053;28;20035;-70
2023/06/04 09:29:52;;;;;;;6.43;1.90;;;;;;;23.91;31.09;100789.72;4142174;28;20543;-69
2023/06/04 09:32:04;;;;;;;6.15;1.60;;;;;;;24.05;29.84;100791.91;4144149;28;20034;-69
2023/06/04 09:34:07;;;;;;;3.80;1.77;;;;;;;24.15;29.21;100776.47;4140932;28;20057;-69
2023/06/04 09:36:12;;;;;;;2.40;1.25;;;;;;;24.11;29.81;100778.38;4127383;28;20448;-69
2023/06/04 09:38:15;;;;;;;;;;;;;;;24.27;29.79;100783.09;4138875;28;20048;-68